| time (UTC) | temp F | wind direction | speed MPH | gust MPH | rain 1hr in | rain 24hr in | rain mn in | humidity % | barometer mb |
| 20260831224601 | 75 | 281 | 1.0 | 3.0 | 0.00 | 0.00 | 0.00 | 39 | 1016.8 |
| 20260831223106 | 75 | 150 | 0.0 | 6.0 | 0.00 | 0.00 | 0.00 | 42 | 1017.0 |
| 20260831221558 | 74 | 234 | 1.0 | 5.0 | 0.00 | 0.00 | 0.00 | 41 | 1017.2 |
| 20260831220119 | 75 | 302 | 3.0 | 6.0 | 0.00 | 0.00 | 0.00 | 41 | 1017.3 |
| 20260831214559 | 74 | 223 | 2.0 | 7.0 | 0.00 | 0.00 | 0.00 | 42 | 1017.3 |
| 20260831213116 | 75 | 101 | 3.0 | 5.0 | 0.00 | 0.00 | 0.00 | 44 | 1017.6 |
| 20260831211611 | 75 | 128 | 1.0 | 6.0 | 0.00 | 0.00 | 0.00 | 44 | 1017.9 |
| 20260831210056 | 75 | 169 | 1.0 | 5.0 | 0.00 | 0.00 | 0.00 | 45 | 1018.0 |
| 20260831204556 | 74 | 161 | 1.0 | 5.0 | 0.00 | 0.00 | 0.00 | 45 | 1018.0 |
| 20260831203114 | 74 | 164 | 3.0 | 8.0 | 0.00 | 0.00 | 0.00 | 45 | 1018.2 |
| 20260831201602 | 73 | 153 | 1.0 | 4.0 | 0.00 | 0.00 | 0.00 | 47 | 1018.3 |
| 20260831200054 | 72 | 85 | 2.0 | 5.0 | 0.00 | 0.00 | 0.00 | 48 | 1018.5 |
| 20260831194600 | 72 | 192 | 2.0 | 6.0 | 0.00 | 0.00 | 0.00 | 51 | 1018.6 |
| 20260831193058 | 72 | 214 | 1.0 | 4.0 | 0.00 | 0.00 | 0.00 | 48 | 1018.7 |
| 20260831191556 | 72 | 229 | 1.0 | 6.0 | 0.00 | 0.00 | 0.00 | 52 | 1018.9 |
| 20260831190112 | 71 | 152 | 1.0 | 3.0 | 0.00 | 0.00 | 0.00 | 49 | 1018.9 |
| 20260831184605 | 71 | 318 | 2.0 | 4.0 | 0.00 | 0.00 | 0.00 | 50 | 1018.9 |
| 20260831183100 | 70 | 196 | 1.0 | 5.0 | 0.00 | 0.00 | 0.00 | 54 | 1018.9 |
| 20260831181559 | 69 | 155 | 2.0 | 5.0 | 0.00 | 0.00 | 0.00 | 55 | 1019.2 |
| 20260831180105 | 69 | 163 | 1.0 | 6.0 | 0.00 | 0.00 | 0.00 | 51 | 1019.2 |
| 20260831174558 | 68 | 232 | 2.0 | 5.0 | 0.00 | 0.00 | 0.00 | 55 | 1019.2 |
| 20260831173033 | 66 | 253 | 3.0 | 6.0 | 0.00 | 0.00 | 0.00 | 55 | 1019.3 |
| 20260831171531 | 66 | 223 | 1.0 | 4.0 | 0.00 | 0.00 | 0.00 | 59 | 1019.3 |
| 20260831170035 | 64 | 227 | 3.0 | 8.0 | 0.00 | 0.00 | 0.00 | 61 | 1019.2 |
| 20260831164548 | 62 | 105 | 0.0 | 2.0 | 0.00 | 0.00 | 0.00 | 76 | 1019.1 |
| 20260831163039 | 59 | 313 | 1.0 | 4.0 | 0.00 | 0.00 | 0.00 | 72 | 1019.2 |
| 20260831161535 | 56 | 323 | 2.0 | 5.0 | 0.00 | 0.00 | 0.00 | 82 | 1019.2 |
| 20260831160035 | 52 | 41 | 1.0 | 2.0 | 0.00 | 0.00 | 0.00 | 89 | 1019.3 |
| 20260831154604 | 51 | 38 | 1.0 | 3.0 | 0.00 | 0.00 | 0.00 | 89 | 1019.3 |
| 20260831153034 | 50 | 44 | 1.0 | 3.0 | 0.00 | 0.00 | 0.00 | 89 | 1019.4 |
| 20260831151533 | 51 | 43 | 1.0 | 3.0 | 0.00 | 0.00 | 0.00 | 86 | 1019.2 |
| 20260831150042 | 53 | 269 | 1.0 | 4.0 | 0.00 | 0.00 | 0.00 | 82 | 1019.4 |
| 20260831144535 | 54 | 17 | 1.0 | 6.0 | 0.00 | 0.00 | 0.00 | 78 | 1019.1 |
| 20260831143037 | 54 | 54 | 0.0 | 8.0 | 0.00 | 0.00 | 0.00 | 79 | 1019.2 |
| 20260831141535 | 54 | 329 | 2.0 | 9.0 | 0.00 | 0.00 | 0.00 | 80 | 1018.9 |
| 20260831140033 | 51 | 298 | 1.0 | 7.0 | 0.00 | 0.00 | 0.00 | 84 | 1019.1 |
| 20260831134535 | 52 | 331 | 1.0 | 5.0 | 0.00 | 0.00 | 0.00 | 85 | 1018.9 |
| 20260831133036 | 49 | 44 | 2.0 | 4.0 | 0.00 | 0.00 | 0.00 | 90 | 1019.0 |
| 20260831131533 | 47 | 300 | 1.0 | 4.0 | 0.00 | 0.00 | 0.00 | 94 | 1019.2 |
| 20260831130038 | 45 | 323 | 1.0 | 3.0 | 0.00 | 0.00 | 0.00 | 97 | 1019.1 |
| 20260831124536 | 44 | 17 | 1.0 | 3.0 | 0.00 | 0.00 | 0.00 | 96 | 1019.1 |
| 20260831123037 | 44 | 325 | 1.0 | 3.0 | 0.00 | 0.00 | 0.00 | 97 | 1019.2 |
| 20260831121535 | 44 | 342 | 1.0 | 3.0 | 0.00 | 0.00 | 0.00 | 97 | 1019.3 |
| 20260831120039 | 44 | 12 | 0.0 | 2.0 | 0.00 | 0.00 | 0.00 | 96 | 1019.3 |
| 20260831114537 | 45 | 5 | 1.0 | 2.0 | 0.00 | 0.00 | 0.00 | 96 | 1019.5 |
| 20260831113034 | 45 | 19 | 1.0 | 4.0 | 0.00 | 0.00 | 0.00 | 99 | 1019.6 |
| 20260831111549 | 43 | 352 | 1.0 | 2.0 | 0.00 | 0.00 | 0.00 | 98 | 1019.7 |
| 20260831110047 | 43 | 360 | 1.0 | 2.0 | 0.00 | 0.00 | 0.00 | 98 | 1019.9 |
| 20260831104549 | 43 | 15 | 0.0 | 2.0 | 0.00 | 0.01 | 0.00 | 98 | 1020.0 |
| 20260831103039 | 43 | 335 | 1.0 | 3.0 | 0.00 | 0.01 | 0.00 | 98 | 1020.1 |
| 20260831101536 | 43 | 5 | 1.0 | 4.0 | 0.00 | 0.01 | 0.00 | 99 | 1020.2 |
| 20260831100041 | 43 | 59 | 0.0 | 2.0 | 0.00 | 0.01 | 0.00 | 98 | 1020.6 |
| 20260831094535 | 42 | 30 | 1.0 | 2.0 | 0.00 | 0.01 | 0.00 | 98 | 1020.8 |
| 20260831093046 | 42 | 71 | 0.0 | 2.0 | 0.00 | 0.01 | 0.00 | 98 | 1020.9 |
| 20260831091543 | 42 | 71 | 0.0 | 1.0 | 0.00 | 0.01 | 0.00 | 98 | 1021.1 |
| 20260831090040 | 42 | 71 | 0.0 | 1.0 | 0.00 | 0.01 | 0.00 | 98 | 1021.3 |
| 20260831084534 | 42 | 71 | 0.0 | 1.0 | 0.00 | 0.03 | 0.00 | 98 | 1021.4 |
| 20260831083038 | 42 | 71 | 0.0 | 1.0 | 0.00 | 0.03 | 0.00 | 98 | 1021.4 |
| 20260831081539 | 42 | 71 | 0.0 | 1.0 | 0.00 | 0.03 | 0.00 | 98 | 1021.5 |
| 20260831080042 | 42 | 71 | 0.0 | 1.0 | 0.00 | 0.03 | 0.00 | 97 | 1021.6 |
| 20260831074538 | 42 | 71 | 0.0 | 1.0 | 0.00 | 0.04 | 0.00 | 98 | 1021.7 |
| 20260831073047 | 42 | 71 | 0.0 | 1.0 | 0.00 | 0.04 | 0.00 | 97 | 1021.7 |
| 20260831071537 | 42 | 71 | 0.0 | 1.0 | 0.00 | 0.04 | 0.00 | 97 | 1021.9 |
| 20260831070042 | 42 | 71 | 0.0 | 1.0 | 0.00 | 0.04 | 0.00 | 97 | 1022.2 |
| 20260831064544 | 43 | 71 | 0.0 | 1.0 | 0.00 | 0.04 | 0.04 | 96 | 1022.2 |
| 20260831063039 | 43 | 71 | 0.0 | 1.0 | 0.00 | 0.04 | 0.04 | 96 | 1022.3 |
| 20260831061538 | 43 | 71 | 0.0 | 1.0 | 0.00 | 0.04 | 0.04 | 96 | 1022.4 |
| 20260831060050 | 44 | 71 | 0.0 | 1.0 | 0.00 | 0.04 | 0.04 | 95 | 1022.5 |
| 20260831054538 | 44 | 71 | 0.0 | 1.0 | 0.00 | 0.04 | 0.04 | 95 | 1022.6 |
| 20260831053042 | 45 | 71 | 0.0 | 0.0 | 0.00 | 0.04 | 0.04 | 94 | 1022.8 |
| 20260831051544 | 46 | 71 | 0.0 | 1.0 | 0.00 | 0.04 | 0.04 | 93 | 1022.6 |
| 20260831050038 | 47 | 71 | 0.0 | 1.0 | 0.00 | 0.04 | 0.04 | 93 | 1022.9 |
| 20260831044543 | 48 | 71 | 0.0 | 0.0 | 0.00 | 0.04 | 0.04 | 92 | 1022.9 |
| 20260831043046 | 49 | 71 | 0.0 | 0.0 | 0.00 | 0.04 | 0.04 | 93 | 1023.1 |
| 20260831041533 | 49 | 71 | 0.0 | 0.0 | 0.00 | 0.04 | 0.04 | 93 | 1023.3 |
| 20260831040043 | 50 | 71 | 0.0 | 0.0 | 0.00 | 0.04 | 0.04 | 92 | 1023.1 |
| 20260831034540 | 50 | 71 | 0.0 | 0.0 | 0.00 | 0.06 | 0.04 | 93 | 1023.1 |
| 20260831033042 | 50 | 71 | 0.0 | 0.0 | 0.00 | 0.06 | 0.04 | 92 | 1023.2 |
| 20260831031544 | 51 | 71 | 0.0 | 0.0 | 0.00 | 0.06 | 0.04 | 91 | 1023.2 |
| 20260831030041 | 51 | 71 | 0.0 | 0.0 | 0.00 | 0.06 | 0.04 | 91 | 1023.1 |
| 20260831024543 | 51 | 71 | 0.0 | 0.0 | 0.00 | 0.06 | 0.04 | 90 | 1023.5 |
| 20260831023042 | 51 | 71 | 0.0 | 0.0 | 0.00 | 0.06 | 0.04 | 89 | 1023.4 |
| 20260831021542 | 51 | 71 | 0.0 | 0.0 | 0.00 | 0.06 | 0.04 | 88 | 1023.2 |
| 20260831020040 | 51 | 72 | 0.0 | 0.0 | 0.00 | 0.06 | 0.04 | 89 | 1023.4 |
| 20260831014542 | 51 | 72 | 0.0 | 0.0 | 0.00 | 0.06 | 0.04 | 88 | 1023.7 |
| 20260831013045 | 52 | 71 | 0.0 | 3.0 | 0.00 | 0.06 | 0.04 | 87 | 1023.3 |
| 20260831011542 | 52 | 38 | 0.0 | 3.0 | 0.00 | 0.06 | 0.04 | 86 | 1023.8 |
| 20260831010048 | 52 | 107 | 0.0 | 3.0 | 0.00 | 0.06 | 0.04 | 83 | 1023.8 |
| 20260831004541 | 53 | 84 | 0.0 | 2.0 | 0.00 | 0.06 | 0.04 | 85 | 1023.8 |
| 20260831003057 | 53 | 119 | 0.0 | 4.0 | 0.00 | 0.06 | 0.04 | 84 | 1023.8 |
| 20260831001546 | 53 | 57 | 2.0 | 5.0 | 0.00 | 0.06 | 0.04 | 82 | 1023.9 |
| 20260831000042 | 53 | 39 | 0.0 | 3.0 | 0.00 | 0.06 | 0.04 | 82 | 1024.1 |
| 20260830234601 | 53 | 107 | 2.0 | 6.0 | 0.00 | 0.06 | 0.04 | 83 | 1024.2 |
| 20260830233051 | 53 | 45 | 0.0 | 3.0 | 0.00 | 0.06 | 0.04 | 82 | 1024.2 |
| 20260830231550 | 53 | 80 | 1.0 | 2.0 | 0.00 | 0.06 | 0.04 | 82 | 1024.2 |
| 20260830230047 | 54 | 96 | 1.0 | 3.0 | 0.00 | 0.06 | 0.04 | 81 | 1024.1 |